Time;durP1;ratioP1;P1;durP2;ratioP2;P2;SDS_P1;SDS_P2;PMS_P1;PMS_P2;Temp;Humidity;BMP_temperature;BMP_pressure;BME280_temperature;BME280_humidity;BME280_pressure;Samples;Min_cycle;Max_cycle;Signal;HPM_P1;HPM_P2
2021/06/19 00:01:22;;;;;;;37.20;34.20;;;;;;;24.58;100.00;100419.56;4916344;29;20228;-75
2021/06/19 00:03:50;;;;;;;38.10;34.92;;;;;;;24.61;100.00;100424.41;4918513;29;20695;-75
2021/06/19 00:06:17;;;;;;;39.17;35.92;;;;;;;24.60;100.00;100422.81;4898323;29;20232;-74
2021/06/19 00:08:43;;;;;;;39.90;36.58;;;;;;;24.56;100.00;100428.31;4914108;29;20553;-75
2021/06/19 00:11:08;;;;;;;39.85;36.65;;;;;;;24.53;100.00;100422.69;4914932;29;20227;-75
2021/06/19 00:13:34;;;;;;;40.22;36.95;;;;;;;24.49;100.00;100421.81;4915991;29;20227;-75
2021/06/19 00:16:05;;;;;;;39.05;35.95;;;;;;;24.45;100.00;100427.31;4900201;29;20601;-75
2021/06/19 00:18:33;;;;;;;39.08;35.95;;;;;;;24.53;100.00;100423.47;4903549;29;20187;-75
2021/06/19 00:21:02;;;;;;;38.05;34.95;;;;;;;24.60;100.00;100423.59;4916938;29;20641;-76
2021/06/19 00:23:30;;;;;;;40.45;37.15;;;;;;;24.57;100.00;100417.97;4915524;29;20208;-76
2021/06/19 00:25:58;;;;;;;40.95;37.55;;;;;;;24.56;100.00;100428.31;4923863;28;20230;-75
2021/06/19 00:28:27;;;;;;;38.70;35.50;;;;;;;24.51;100.00;100428.59;4902272;29;20175;-75
2021/06/19 00:30:52;;;;;;;38.63;35.42;;;;;;;24.45;100.00;100427.31;4917390;29;20251;-75
2021/06/19 00:33:23;;;;;;;38.22;35.13;;;;;;;24.37;100.00;100420.00;4887752;29;20228;-75
2021/06/19 00:35:48;;;;;;;39.03;35.85;;;;;;;24.36;100.00;100418.41;4918509;29;20675;-75
2021/06/19 00:38:14;;;;;;;38.30;35.00;;;;;;;24.37;100.00;100424.75;4934666;29;20282;-75
2021/06/19 00:40:42;;;;;;;38.53;35.42;;;;;;;24.25;100.00;100424.09;4933282;29;20231;-75
2021/06/19 00:43:10;;;;;;;39.30;36.00;;;;;;;24.16;100.00;100417.97;4919369;29;20282;-75
2021/06/19 00:45:39;;;;;;;39.70;36.40;;;;;;;24.29;100.00;100419.47;4934145;29;20673;-76
2021/06/19 00:48:08;;;;;;;37.70;34.42;;;;;;;24.27;100.00;100419.81;4919309;29;20212;-75
2021/06/19 00:50:36;;;;;;;37.30;34.13;;;;;;;24.25;100.00;100413.81;4934632;28;20235;-75
2021/06/19 00:53:07;;;;;;;38.67;35.47;;;;;;;24.22;100.00;100419.28;4918955;29;20227;-75
2021/06/19 00:55:37;;;;;;;36.80;33.90;;;;;;;24.18;100.00;100426.75;4909014;29;20222;-77
2021/06/19 00:58:03;;;;;;;34.88;32.08;;;;;;;23.77;100.00;100446.94;4918536;29;20191;-76
2021/06/19 01:00:29;;;;;;;35.85;32.85;;;;;;;23.95;100.00;100428.66;4917005;28;20219;-74
2021/06/19 01:03:00;;;;;;;35.28;32.17;;;;;;;23.95;100.00;100431.44;4934060;29;20347;-75
2021/06/19 01:05:29;;;;;;;34.45;31.55;;;;;;;23.94;100.00;100443.72;4933427;28;20214;-74
2021/06/19 01:07:58;;;;;;;32.58;29.98;;;;;;;23.99;100.00;100447.00;4918853;29;20740;-75
2021/06/19 01:10:23;;;;;;;32.70;30.00;;;;;;;23.93;100.00;100458.75;4901385;28;20224;-75
2021/06/19 01:12:49;;;;;;;32.67;30.08;;;;;;;24.04;100.00;100462.56;4933622;29;20222;-75
2021/06/19 01:15:17;;;;;;;31.27;28.77;;;;;;;24.00;100.00;100461.69;4918213;29;20641;-75
2021/06/19 01:17:45;;;;;;;29.40;26.92;;;;;;;23.98;100.00;100450.13;4918406;29;20217;-76
2021/06/19 01:20:14;;;;;;;29.75;27.25;;;;;;;23.94;100.00;100443.72;4916400;28;20750;-75
2021/06/19 01:22:48;;;;;;;30.02;27.27;;;;;;;24.03;100.00;100453.44;4918849;29;20200;-74
2021/06/19 01:25:18;;;;;;;31.13;28.63;;;;;;;24.26;100.00;100464.59;4907657;28;20204;-75
2021/06/19 01:27:48;;;;;;;30.10;27.70;;;;;;;24.18;100.00;100455.31;4919296;29;20194;-75
2021/06/19 01:30:16;;;;;;;31.00;28.40;;;;;;;24.29;100.00;100441.69;4901667;28;20768;-75
2021/06/19 01:32:41;;;;;;;31.30;28.73;;;;;;;24.21;100.00;100437.94;4917988;29;20207;-75
2021/06/19 01:35:08;;;;;;;32.55;29.95;;;;;;;24.17;100.00;100439.00;4918073;28;20299;-76
2021/06/19 01:37:33;;;;;;;32.53;29.92;;;;;;;24.02;100.00;100435.16;4921463;29;20172;-75
2021/06/19 01:40:09;;;;;;;32.20;29.50;;;;;;;24.01;100.00;100428.00;4937290;29;20242;-75
2021/06/19 01:42:41;;;;;;;31.70;29.23;;;;;;;24.03;100.00;100427.66;4906453;29;20572;-74
2021/06/19 01:45:25;;;;;;;33.33;30.30;;;;;;;23.86;100.00;100425.28;4919335;29;20682;-75
2021/06/19 01:47:51;;;;;;;31.95;29.33;;;;;;;24.00;100.00;100412.50;4921138;29;20185;-76
2021/06/19 01:50:20;;;;;;;32.72;30.02;;;;;;;23.84;100.00;100426.84;4916831;29;20577;-74
2021/06/19 01:52:48;;;;;;;33.28;30.58;;;;;;;23.68;100.00;100438.00;4905300;29;20239;-73
2021/06/19 01:55:18;;;;;;;31.98;29.38;;;;;;;23.73;100.00;100437.69;4940071;28;20346;-75
2021/06/19 01:57:49;;;;;;;33.30;30.67;;;;;;;23.64;100.00;100436.31;4904855;29;20272;-74
2021/06/19 02:00:21;;;;;;;32.70;29.98;;;;;;;23.65;100.00;100440.69;4919275;28;20184;-75
2021/06/19 02:02:54;;;;;;;31.33;28.73;;;;;;;23.51;100.00;100434.81;4906114;29;20203;-75
2021/06/19 02:05:22;;;;;;;30.83;28.42;;;;;;;23.38;100.00;100446.38;4921635;28;20188;-75
2021/06/19 02:07:57;;;;;;;30.67;28.27;;;;;;;23.37;100.00;100450.31;4921965;29;20199;-76
2021/06/19 02:10:25;;;;;;;31.05;28.45;;;;;;;23.34;100.00;100451.84;4936581;28;20235;-75
2021/06/19 02:12:53;;;;;;;29.92;27.52;;;;;;;23.49;100.00;100444.66;4906639;29;20283;-76
2021/06/19 02:15:19;;;;;;;30.15;27.65;;;;;;;23.36;100.00;100445.94;4921808;28;20285;-76
2021/06/19 02:17:44;;;;;;;31.75;29.15;;;;;;;23.29;100.00;100451.31;4921703;29;20187;-74
2021/06/19 02:20:11;;;;;;;32.05;29.45;;;;;;;23.22;100.00;100448.38;4920305;28;20637;-75
2021/06/19 02:22:41;;;;;;;32.30;29.70;;;;;;;23.20;100.00;100451.53;4891363;29;20239;-75
2021/06/19 02:25:10;;;;;;;33.28;30.45;;;;;;;23.05;100.00;100459.84;4924558;28;20203;-75
2021/06/19 02:27:36;;;;;;;33.17;30.38;;;;;;;23.17;100.00;100457.00;4907923;29;20168;-76
2021/06/19 02:30:08;;;;;;;34.72;31.73;;;;;;;23.31;100.00;100446.22;4902855;29;20518;-76
2021/06/19 02:32:33;;;;;;;35.38;32.33;;;;;;;23.43;100.00;100440.56;4919532;29;20310;-75
2021/06/19 02:35:02;;;;;;;35.10;32.15;;;;;;;23.44;100.00;100447.72;4920237;29;20189;-75
2021/06/19 02:37:27;;;;;;;32.22;29.33;;;;;;;23.28;100.00;100442.22;4919263;29;20235;-75
2021/06/19 02:39:53;;;;;;;32.63;29.83;;;;;;;23.27;100.00;100445.34;4937906;29;20195;-75
2021/06/19 02:42:23;;;;;;;31.77;29.20;;;;;;;23.26;100.00;100444.53;4921385;29;20235;-74
2021/06/19 02:44:49;;;;;;;32.13;29.33;;;;;;;23.25;100.00;100442.91;4921979;29;20192;-76
2021/06/19 02:47:17;;;;;;;32.75;30.05;;;;;;;23.32;100.00;100448.63;4921302;29;20231;-76
2021/06/19 02:49:45;;;;;;;33.33;30.52;;;;;;;23.31;100.00;100447.00;4906791;29;20239;-76
2021/06/19 02:52:11;;;;;;;31.48;28.70;;;;;;;23.21;100.00;100452.31;4920809;29;20231;-76
2021/06/19 02:54:42;;;;;;;32.17;29.48;;;;;;;23.31;100.00;100451.75;4939135;29;20275;-76
2021/06/19 02:57:10;;;;;;;31.85;29.15;;;;;;;23.36;100.00;100449.50;4943200;28;20219;-76
2021/06/19 02:59:44;;;;;;;31.65;29.02;;;;;;;23.33;100.00;100455.81;4906311;29;20192;-76
2021/06/19 03:02:14;;;;;;;31.30;28.60;;;;;;;23.55;100.00;100460.63;4921648;29;20223;-75
2021/06/19 03:04:44;;;;;;;31.85;29.15;;;;;;;23.61;100.00;100462.81;4922810;29;20227;-76
2021/06/19 03:07:13;;;;;;;31.75;29.02;;;;;;;23.42;100.00;100459.16;4937392;29;20223;-75
2021/06/19 03:09:39;;;;;;;30.73;28.02;;;;;;;23.54;100.00;100461.03;4906684;29;20661;-75
2021/06/19 03:12:07;;;;;;;31.75;29.10;;;;;;;23.58;100.00;100454.41;4935762;29;20232;-77
2021/06/19 03:14:36;;;;;;;31.02;28.52;;;;;;;23.59;100.00;100456.84;4922604;29;20267;-76
2021/06/19 03:17:01;;;;;;;31.65;29.08;;;;;;;23.52;100.00;100449.50;4921026;29;20247;-75
2021/06/19 03:19:28;;;;;;;32.08;29.38;;;;;;;23.47;100.00;100458.09;4937765;29;20280;-76
2021/06/19 03:21:58;;;;;;;32.03;29.35;;;;;;;23.62;100.00;100439.44;4920388;29;20223;-75
2021/06/19 03:24:24;;;;;;;32.30;29.70;;;;;;;23.65;100.00;100435.94;4921605;29;20251;-76
2021/06/19 03:26:52;;;;;;;32.58;29.80;;;;;;;23.71;100.00;100444.78;4943771;28;20223;-75
2021/06/19 03:29:18;;;;;;;31.23;28.67;;;;;;;23.77;100.00;100440.56;4921716;29;20211;-75
2021/06/19 03:31:46;;;;;;;33.40;30.42;;;;;;;23.75;100.00;100440.91;4936755;29;20234;-75
2021/06/19 03:34:12;;;;;;;32.28;29.55;;;;;;;23.73;100.00;100446.03;4907167;29;20673;-76
2021/06/19 03:36:38;;;;;;;32.55;29.65;;;;;;;23.74;100.00;100450.41;4921300;29;20278;-75
2021/06/19 03:39:15;;;;;;;31.23;28.63;;;;;;;23.78;100.00;100451.28;4937358;29;20183;-75
2021/06/19 03:41:43;;;;;;;30.13;27.70;;;;;;;23.83;100.00;100459.34;4921021;29;20216;-76
2021/06/19 03:44:16;;;;;;;30.85;28.35;;;;;;;23.86;100.00;100446.69;4921684;29;20190;-75
2021/06/19 03:46:44;;;;;;;31.20;28.40;;;;;;;23.87;100.00;100457.44;4920692;29;20251;-77
2021/06/19 03:49:14;;;;;;;32.38;29.77;;;;;;;23.78;100.00;100467.16;4920050;29;20195;-75
2021/06/19 03:51:40;;;;;;;31.45;28.83;;;;;;;23.72;100.00;100471.38;4919842;29;20291;-77
2021/06/19 03:54:08;;;;;;;33.50;30.77;;;;;;;23.97;100.00;100473.50;4921814;29;20191;-76
2021/06/19 03:56:36;;;;;;;33.25;30.45;;;;;;;23.98;100.00;100469.56;4926793;29;20224;-75
2021/06/19 03:59:04;;;;;;;32.92;30.15;;;;;;;24.29;100.00;100473.03;4886054;29;20177;-75
2021/06/19 04:01:30;;;;;;;33.65;30.90;;;;;;;24.03;100.00;100469.28;4905497;29;20227;-75
2021/06/19 04:04:00;;;;;;;31.52;28.80;;;;;;;24.34;100.00;100491.34;4936261;29;20231;-75
2021/06/19 04:06:28;;;;;;;33.00;30.15;;;;;;;24.35;100.00;100489.00;4936821;28;20598;-77
2021/06/19 04:09:01;;;;;;;31.83;28.90;;;;;;;24.37;100.00;100483.88;4937641;29;20206;-75
2021/06/19 04:11:26;;;;;;;30.83;28.23;;;;;;;24.33;100.00;100482.22;4919878;29;20319;-78
2021/06/19 04:13:57;;;;;;;32.80;30.10;;;;;;;24.57;100.00;100496.59;4905147;29;20211;-75
2021/06/19 04:16:27;;;;;;;32.40;29.77;;;;;;;24.50;100.00;100496.44;4936232;29;20298;-76
2021/06/19 04:19:00;;;;;;;31.35;28.80;;;;;;;24.40;100.00;100491.50;4936599;29;20283;-76
2021/06/19 04:21:27;;;;;;;31.27;28.67;;;;;;;24.49;100.00;100486.50;4934883;29;20729;-75
2021/06/19 04:23:53;;;;;;;29.65;27.15;;;;;;;24.60;100.00;100498.63;4938065;29;20195;-76
2021/06/19 04:26:20;;;;;;;30.55;27.73;;;;;;;24.56;100.00;100495.00;4941363;28;20227;-76
2021/06/19 04:28:48;;;;;;;28.88;26.58;;;;;;;24.48;100.00;100504.34;4937845;29;20308;-75
2021/06/19 04:31:14;;;;;;;28.98;26.60;;;;;;;24.43;100.00;100512.16;4936627;28;20251;-74
2021/06/19 04:33:39;;;;;;;27.90;25.73;;;;;;;24.35;100.00;100505.66;4937857;29;20231;-77
2021/06/19 04:36:07;;;;;;;28.55;25.95;;;;;;;24.58;100.00;100505.72;4938005;28;20223;-76
2021/06/19 04:38:32;;;;;;;28.52;26.00;;;;;;;24.65;100.00;100503.91;4922525;29;20184;-75
2021/06/19 04:41:12;;;;;;;26.30;24.00;;;;;;;24.51;100.00;100511.94;4886169;29;20741;-77
2021/06/19 04:46:10;;;;;;;26.67;24.38;;;;;;;24.23;100.00;100518.06;4916365;29;20239;-78
2021/06/19 04:48:36;;;;;;;27.13;24.92;;;;;;;24.31;100.00;100520.69;4932613;29;20183;-78
2021/06/19 04:51:02;;;;;;;27.58;24.98;;;;;;;24.30;100.00;100523.81;4930272;29;20278;-78
2021/06/19 04:53:27;;;;;;;26.02;23.95;;;;;;;24.35;100.00;100527.91;4931927;29;20612;-78
2021/06/19 04:56:00;;;;;;;26.58;24.35;;;;;;;24.14;100.00;100523.06;4919517;29;20585;-77
2021/06/19 04:58:28;;;;;;;26.27;24.02;;;;;;;24.22;100.00;100527.59;4900264;29;20246;-77
2021/06/19 05:00:59;;;;;;;24.35;22.35;;;;;;;24.16;100.00;100526.28;4914389;29;20232;-77
2021/06/19 05:03:24;;;;;;;23.60;21.67;;;;;;;24.20;100.00;100525.16;4931445;29;20196;-77
2021/06/19 05:05:52;;;;;;;22.08;20.08;;;;;;;24.39;100.00;100528.78;4915126;29;20216;-77
2021/06/19 05:08:20;;;;;;;20.65;18.95;;;;;;;24.59;100.00;100532.34;4931452;29;20210;-77
2021/06/19 05:10:50;;;;;;;19.23;17.50;;;;;;;24.80;100.00;100533.56;4915865;29;20318;-78
2021/06/19 05:13:15;;;;;;;18.63;16.80;;;;;;;25.07;100.00;100535.25;4934672;29;20832;-78
2021/06/19 05:15:41;;;;;;;17.17;15.00;;;;;;;25.13;100.00;100538.16;4913379;29;20698;-77
2021/06/19 05:18:07;;;;;;;16.70;15.00;;;;;;;25.36;100.00;100540.94;4919300;29;20199;-77
2021/06/19 05:20:34;;;;;;;16.15;14.63;;;;;;;25.34;100.00;100540.50;4917920;29;20230;-78
2021/06/19 05:23:00;;;;;;;14.85;13.55;;;;;;;25.63;100.00;100551.75;4920016;29;20244;-77
2021/06/19 05:25:26;;;;;;;15.52;13.38;;;;;;;25.81;99.60;100545.28;4908183;28;22093;-78
2021/06/19 05:27:55;;;;;;;14.02;12.63;;;;;;;25.69;100.00;100545.47;4903186;29;20190;-77
2021/06/19 05:30:20;;;;;;;13.60;12.30;;;;;;;26.01;95.42;100552.34;4917286;28;20195;-77
2021/06/19 05:32:49;;;;;;;13.15;11.85;;;;;;;25.91;94.43;100560.53;4935952;29;20219;-77
2021/06/19 05:35:17;;;;;;;13.27;11.70;;;;;;;25.84;95.95;100555.63;4918856;28;20203;-77
2021/06/19 05:37:45;;;;;;;14.30;11.80;;;;;;;25.88;94.35;100553.75;4918766;29;20219;-77
2021/06/19 05:40:11;;;;;;;13.25;12.05;;;;;;;25.92;94.68;100559.34;4917654;28;20180;-77
2021/06/19 05:42:36;;;;;;;13.25;11.38;;;;;;;25.93;93.51;100573.72;4900922;29;20208;-77
2021/06/19 05:45:05;;;;;;;12.40;11.30;;;;;;;25.82;94.20;100579.47;4918919;29;20629;-78
2021/06/19 05:47:31;;;;;;;12.18;11.02;;;;;;;25.83;94.64;100579.09;4918475;29;20223;-77
2021/06/19 05:49:58;;;;;;;12.48;11.02;;;;;;;25.89;93.93;100576.81;4933201;29;20266;-77
2021/06/19 05:52:26;;;;;;;11.35;10.25;;;;;;;26.11;90.96;100571.94;4918097;29;20710;-76
2021/06/19 05:54:55;;;;;;;11.18;10.05;;;;;;;26.13;91.60;100579.94;4920423;29;20184;-78
2021/06/19 05:57:22;;;;;;;10.85;9.73;;;;;;;26.13;92.04;100582.72;4923406;29;20219;-79
2021/06/19 05:59:48;;;;;;;9.93;8.93;;;;;;;26.23;89.23;100580.13;4936021;29;20195;-78
2021/06/19 06:02:14;;;;;;;9.45;8.38;;;;;;;26.04;88.23;100584.97;4933871;29;20223;-77
2021/06/19 06:04:44;;;;;;;8.43;7.60;;;;;;;26.36;86.09;100584.28;4919098;29;20218;-78
2021/06/19 06:07:12;;;;;;;7.82;7.05;;;;;;;26.54;85.19;100599.25;4934611;29;20227;-76
2021/06/19 06:09:38;;;;;;;7.88;7.18;;;;;;;26.75;83.63;100595.53;4902798;29;20188;-78
2021/06/19 06:12:09;;;;;;;8.35;6.32;;;;;;;26.61;81.66;100593.75;4931577;29;20227;-76
2021/06/19 06:14:35;;;;;;;7.93;5.93;;;;;;;26.65;81.90;100606.56;4902247;29;20186;-77
2021/06/19 06:17:04;;;;;;;7.60;6.00;;;;;;;26.70;81.13;100604.25;4934144;28;20319;-77
2021/06/19 06:19:29;;;;;;;6.70;5.70;;;;;;;26.76;81.43;100601.91;4902216;29;20520;-78
2021/06/19 06:22:04;;;;;;;6.90;5.40;;;;;;;26.78;80.92;100605.91;4884469;29;20212;-77
2021/06/19 06:24:36;;;;;;;7.22;5.50;;;;;;;26.69;79.76;100612.19;4904967;29;20208;-76
2021/06/19 06:27:05;;;;;;;6.22;5.38;;;;;;;26.71;80.00;100616.19;4923421;29;20228;-77
2021/06/19 06:29:30;;;;;;;5.07;4.32;;;;;;;26.48;78.75;100614.69;4906250;29;20536;-78
2021/06/19 06:31:59;;;;;;;6.82;5.15;;;;;;;26.69;79.59;100617.75;4921231;29;20243;-78
2021/06/19 06:34:25;;;;;;;5.53;4.65;;;;;;;26.95;77.92;100622.09;4925360;29;20212;-78
2021/06/19 06:36:58;;;;;;;6.38;4.50;;;;;;;27.09;77.22;100617.47;4943456;29;20223;-79
2021/06/19 06:39:25;;;;;;;4.80;4.15;;;;;;;27.34;74.61;100620.50;4942480;29;20646;-77
2021/06/19 06:41:54;;;;;;;4.85;3.38;;;;;;;27.35;72.56;100625.72;4935329;28;20219;-77
2021/06/19 06:44:20;;;;;;;4.47;3.30;;;;;;;27.42;69.58;100631.38;4932143;29;20561;-76
2021/06/19 06:46:49;;;;;;;3.85;3.20;;;;;;;27.30;68.36;100628.03;4935615;28;20226;-77
2021/06/19 06:49:15;;;;;;;4.22;3.40;;;;;;;27.64;68.65;100638.78;4920273;29;20259;-75
2021/06/19 06:51:43;;;;;;;3.38;2.63;;;;;;;27.36;68.00;100632.09;4934786;28;20233;-77
2021/06/19 06:54:15;;;;;;;3.85;2.70;;;;;;;27.31;67.82;100615.72;4921073;29;20198;-76
2021/06/19 06:56:43;;;;;;;2.50;2.30;;;;;;;27.49;67.57;100625.88;4941847;28;20294;-75
2021/06/19 06:59:09;;;;;;;2.90;2.63;;;;;;;27.63;65.94;100628.78;4919878;29;20596;-78
2021/06/19 07:01:34;;;;;;;4.20;2.47;;;;;;;27.74;64.42;100621.31;4919352;29;20247;-76
2021/06/19 07:04:02;;;;;;;4.55;2.58;;;;;;;27.96;65.49;100629.44;4919171;29;20237;-76
2021/06/19 07:06:29;;;;;;;4.32;2.63;;;;;;;28.02;65.62;100636.31;4936133;29;20227;-76
2021/06/19 07:08:54;;;;;;;4.30;2.72;;;;;;;28.01;64.26;100632.69;4934972;29;20195;-76
2021/06/19 07:11:22;;;;;;;3.00;2.80;;;;;;;27.67;65.85;100627.63;4900406;29;20764;-76
2021/06/19 07:13:50;;;;;;;3.35;3.05;;;;;;;27.69;65.44;100636.44;4937649;29;20298;-74
2021/06/19 07:16:22;;;;;;;4.30;3.00;;;;;;;28.10;65.84;100635.19;4933991;29;20222;-74
2021/06/19 07:18:50;;;;;;;3.42;3.10;;;;;;;28.13;66.72;100645.56;4936271;29;20203;-74
2021/06/19 07:21:18;;;;;;;3.78;3.00;;;;;;;27.99;66.05;100634.28;4919640;29;20662;-76
2021/06/19 07:23:46;;;;;;;4.40;3.20;;;;;;;28.11;66.08;100642.34;4918004;29;20224;-77
2021/06/19 07:26:14;;;;;;;4.55;2.83;;;;;;;28.30;64.87;100640.91;4934830;28;20227;-75
2021/06/19 07:28:44;;;;;;;2.92;2.03;;;;;;;28.38;62.37;100639.75;4929194;29;20260;-75
2021/06/19 07:31:17;;;;;;;2.92;2.10;;;;;;;28.58;62.75;100629.88;4933032;29;20254;-76
2021/06/19 07:33:43;;;;;;;3.00;1.92;;;;;;;28.37;61.71;100634.53;4935162;29;20591;-77
2021/06/19 07:36:11;;;;;;;2.67;1.88;;;;;;;28.32;61.23;100638.50;4922910;29;20311;-75
2021/06/19 07:38:42;;;;;;;3.92;2.25;;;;;;;27.97;61.33;100637.44;4918840;29;20199;-75
2021/06/19 07:41:10;;;;;;;11.15;10.05;;;;;;;28.06;62.33;100639.94;4894389;29;20235;-77
2021/06/19 07:43:35;;;;;;;16.50;14.90;;;;;;;28.25;61.72;100639.69;4918500;29;20191;-76
2021/06/19 07:46:09;;;;;;;3.58;1.75;;;;;;;28.28;60.35;100648.09;4902220;29;20220;-77
2021/06/19 07:48:39;;;;;;;2.42;1.80;;;;;;;28.61;62.15;100640.31;4918828;29;20188;-78
2021/06/19 07:51:05;;;;;;;2.60;1.60;;;;;;;28.59;59.81;100637.06;4932656;28;20333;-77
2021/06/19 07:53:33;;;;;;;2.65;1.52;;;;;;;28.06;59.61;100656.72;4935012;29;20256;-79
2021/06/19 07:56:04;;;;;;;2.10;1.90;;;;;;;28.25;60.76;100642.47;4939990;28;20291;-76
2021/06/19 07:58:32;;;;;;;2.63;1.30;;;;;;;28.49;58.77;100654.59;4933280;29;20192;-77
2021/06/19 08:01:01;;;;;;;2.88;1.40;;;;;;;28.57;58.35;100642.25;4930936;28;20230;-78
2021/06/19 08:03:29;;;;;;;2.72;1.73;;;;;;;28.21;59.71;100658.41;4920243;29;20214;-78
2021/06/19 08:05:57;;;;;;;2.92;1.50;;;;;;;28.27;59.53;100664.03;4916197;29;20636;-78
2021/06/19 08:08:22;;;;;;;1.52;1.42;;;;;;;28.03;58.19;100663.06;4919165;29;20259;-76
2021/06/19 08:10:53;;;;;;;2.22;1.48;;;;;;;27.94;59.97;100654.19;4918774;29;21898;-77
2021/06/19 08:13:18;;;;;;;1.60;1.50;;;;;;;28.59;58.83;100662.25;4918434;29;20231;-75
2021/06/19 08:15:46;;;;;;;1.58;1.48;;;;;;;28.11;57.47;100659.13;4931908;29;20223;-77
2021/06/19 08:18:12;;;;;;;2.60;1.50;;;;;;;28.18;58.43;100665.56;4901633;29;20191;-77
2021/06/19 08:20:42;;;;;;;2.70;1.52;;;;;;;28.25;57.65;100664.84;4916619;29;20230;-78
2021/06/19 08:23:13;;;;;;;1.70;1.50;;;;;;;28.45;58.19;100676.13;4918747;29;20199;-77
2021/06/19 08:25:38;;;;;;;3.10;1.40;;;;;;;28.67;57.09;100672.31;4917094;29;20618;-76
2021/06/19 08:28:06;;;;;;;2.22;1.90;;;;;;;28.43;56.95;100666.53;4918408;29;20188;-78
2021/06/19 08:30:32;;;;;;;2.08;1.45;;;;;;;28.52;58.55;100664.22;4915512;29;20227;-78
2021/06/19 08:33:00;;;;;;;1.60;1.40;;;;;;;28.50;55.45;100667.38;4883858;29;20243;-77
2021/06/19 08:35:31;;;;;;;3.38;1.60;;;;;;;28.70;56.73;100668.72;4916095;28;20231;-78
2021/06/19 08:37:56;;;;;;;2.55;1.67;;;;;;;28.69;54.67;100658.72;4898970;29;20199;-78
2021/06/19 08:40:27;;;;;;;2.47;1.50;;;;;;;28.79;55.35;100655.97;4887991;28;20247;-78
2021/06/19 08:42:55;;;;;;;3.75;1.58;;;;;;;28.65;55.00;100640.34;4917681;29;20216;-79
2021/06/19 08:45:20;;;;;;;2.35;1.48;;;;;;;28.54;55.62;100665.41;4907308;28;20583;-78
2021/06/19 08:47:48;;;;;;;1.80;1.50;;;;;;;29.08;54.61;100661.28;4920694;29;20192;-75
2021/06/19 08:50:14;;;;;;;2.38;1.75;;;;;;;29.13;56.11;100663.69;4902459;29;20199;-76
2021/06/19 08:52:40;;;;;;;3.90;1.80;;;;;;;29.57;53.82;100656.59;4904197;29;20267;-78
2021/06/19 08:55:11;;;;;;;2.47;1.50;;;;;;;29.44;53.92;100655.41;4908117;29;20206;-76
2021/06/19 08:57:39;;;;;;;1.80;1.70;;;;;;;29.32;53.36;100655.00;4906501;29;20223;-76
2021/06/19 09:00:08;;;;;;;3.22;1.88;;;;;;;29.27;53.34;100663.78;4904546;29;20187;-76
2021/06/19 09:02:40;;;;;;;6.53;4.70;;;;;;;29.02;54.03;100666.84;4919254;29;20223;-75
2021/06/19 09:05:08;;;;;;;3.22;2.80;;;;;;;29.13;55.26;100663.69;4919541;28;20235;-74
2021/06/19 09:07:49;;;;;;;2.53;1.70;;;;;;;29.19;54.44;100662.16;4903849;29;20195;-73
2021/06/19 09:10:23;;;;;;;2.63;1.83;;;;;;;29.37;54.01;100665.00;4917622;28;20233;-74
2021/06/19 09:13:14;;;;;;;2.33;1.83;;;;;;;29.46;53.08;100677.41;4936438;29;20231;-74
2021/06/19 09:15:50;;;;;;;2.72;1.60;;;;;;;29.06;53.48;100680.47;4918629;29;20257;-74
2021/06/19 09:18:25;;;;;;;1.50;1.40;;;;;;;29.27;51.75;100680.56;4919329;29;20561;-74
2021/06/19 09:20:53;;;;;;;2.00;1.40;;;;;;;29.19;51.71;100676.16;4933873;29;20326;-75
2021/06/19 09:23:28;;;;;;;2.28;1.63;;;;;;;29.27;51.09;100680.56;4919074;29;20246;-74
2021/06/19 09:26:33;;;;;;;4.18;1.83;;;;;;;29.88;50.15;100681.88;4941910;28;20215;-77
2021/06/19 09:29:11;;;;;;;3.90;1.73;;;;;;;29.67;48.64;100677.44;4891749;29;20958;-74
2021/06/19 09:31:39;;;;;;;2.08;1.70;;;;;;;29.44;48.80;100683.41;4943084;28;20295;-75
2021/06/19 09:34:07;;;;;;;2.35;1.52;;;;;;;29.56;50.01;100683.03;4919297;29;20226;-75
2021/06/19 09:36:45;;;;;;;2.00;1.58;;;;;;;29.13;49.99;100682.50;4935271;29;20239;-77
2021/06/19 09:39:13;;;;;;;3.00;1.55;;;;;;;29.44;49.33;100677.00;4920306;29;20650;-77
2021/06/19 09:41:45;;;;;;;2.55;1.70;;;;;;;29.60;48.04;100674.66;4917232;29;20591;-77
2021/06/19 09:44:13;;;;;;;3.85;1.70;;;;;;;29.62;49.39;100669.44;4934899;29;20184;-77
2021/06/19 09:46:38;;;;;;;2.13;1.65;;;;;;;29.72;49.81;100682.66;4918862;29;20243;-76
2021/06/19 09:49:15;;;;;;;1.92;1.75;;;;;;;29.73;49.06;100675.88;4936606;29;20226;-75
2021/06/19 09:51:50;;;;;;;4.10;1.70;;;;;;;29.84;51.10;100675.47;4917685;29;20303;-76
2021/06/19 09:54:19;;;;;;;2.08;1.80;;;;;;;29.81;48.56;100678.28;4920556;29;20191;-75
2021/06/19 09:56:51;;;;;;;4.60;1.70;;;;;;;29.68;49.19;100684.66;4936797;28;20332;-76
2021/06/19 09:59:30;;;;;;;3.40;1.40;;;;;;;29.86;51.07;100681.47;4917538;29;20195;-76
2021/06/19 10:01:59;;;;;;;3.92;1.80;;;;;;;30.01;48.42;100677.47;4928838;29;20234;-75
2021/06/19 10:04:26;;;;;;;4.97;2.03;;;;;;;30.00;47.69;100673.09;4935001;29;20228;-76
2021/06/19 10:06:52;;;;;;;1.77;1.67;;;;;;;29.95;48.95;100672.69;4917950;29;20211;-76
2021/06/19 10:09:18;;;;;;;2.63;1.83;;;;;;;30.14;50.95;100673.06;4902999;29;20196;-76
2021/06/19 10:11:48;;;;;;;2.53;1.52;;;;;;;30.00;48.72;100675.06;4933422;29;20667;-75
2021/06/19 10:14:17;;;;;;;2.42;1.55;;;;;;;29.48;49.11;100669.41;4918695;29;20274;-76
2021/06/19 10:16:46;;;;;;;3.15;1.70;;;;;;;30.20;51.32;100674.25;4918608;29;20242;-74
2021/06/19 10:19:14;;;;;;;5.38;1.65;;;;;;;29.90;49.68;100676.69;4902591;29;20200;-78
2021/06/19 10:21:43;;;;;;;9.57;8.68;;;;;;;29.76;47.74;100669.47;4931638;29;20231;-73
2021/06/19 10:24:10;;;;;;;1.67;1.58;;;;;;;29.87;46.67;100671.88;4914790;29;20184;-77
2021/06/19 10:26:38;;;;;;;1.80;1.30;;;;;;;29.75;47.60;100677.06;4919207;29;20743;-75
2021/06/19 10:29:09;;;;;;;1.75;1.33;;;;;;;29.74;48.29;100666.25;4902307;29;20240;-75
2021/06/19 10:31:42;;;;;;;2.10;1.10;;;;;;;30.14;47.31;100670.25;4916743;29;20231;-76
2021/06/19 10:34:30;;;;;;;1.48;1.38;;;;;;;30.18;47.57;100671.03;4918012;29;20573;-75
2021/06/19 10:36:57;;;;;;;2.25;1.33;;;;;;;30.48;48.81;100677.06;4899433;29;20219;-76
2021/06/19 10:39:39;;;;;;;1.08;0.95;;;;;;;30.46;45.96;100676.66;4914694;29;20598;-76
2021/06/19 10:42:21;;;;;;;2.25;1.20;;;;;;;30.54;45.25;100667.03;4929113;29;20223;-76
2021/06/19 10:44:50;;;;;;;0.98;0.98;;;;;;;30.40;45.12;100667.03;4915735;29;20199;-76
2021/06/19 10:47:22;;;;;;;1.52;1.20;;;;;;;30.53;45.14;100666.22;4916054;29;20226;-76
2021/06/19 10:49:48;;;;;;;1.27;1.10;;;;;;;30.73;44.84;100665.34;4917140;29;20180;-75
2021/06/19 10:52:34;;;;;;;2.10;1.23;;;;;;;31.01;44.58;100658.84;4900016;29;20238;-76
2021/06/19 10:55:10;;;;;;;3.25;1.50;;;;;;;31.58;45.45;100650.50;4936806;29;20770;-77
2021/06/19 10:57:54;;;;;;;1.67;1.10;;;;;;;31.40;44.10;100647.00;4935247;29;20239;-77
2021/06/19 11:00:29;;;;;;;1.88;1.40;;;;;;;31.38;45.22;100643.81;4933500;29;20192;-77
2021/06/19 11:02:57;;;;;;;1.23;1.13;;;;;;;31.49;42.92;100642.53;4918915;29;20199;-76
2021/06/19 11:05:44;;;;;;;2.25;1.10;;;;;;;31.44;43.17;100642.97;4918238;28;20199;-77
2021/06/19 11:08:17;;;;;;;1.23;1.13;;;;;;;31.15;42.66;100649.16;4934953;29;20251;-76
2021/06/19 11:10:49;;;;;;;1.23;0.98;;;;;;;31.53;43.76;100642.50;4916613;29;20223;-75
2021/06/19 11:13:27;;;;;;;1.20;1.10;;;;;;;31.31;41.51;100654.28;4933963;29;20252;-76
2021/06/19 11:15:55;;;;;;;2.15;1.02;;;;;;;31.40;43.05;100649.03;4933517;29;20231;-76
2021/06/19 11:18:48;;;;;;;1.70;0.90;;;;;;;31.59;44.26;100647.28;4933931;29;20180;-76
2021/06/19 11:21:28;;;;;;;1.48;1.02;;;;;;;31.95;42.96;100660.66;4932915;29;20854;-76
2021/06/19 11:24:00;;;;;;;3.58;1.20;;;;;;;32.01;41.59;100646.97;4899015;29;20230;-76